ADDS METAR Data INFO
IDs: Format: Raw Decoded Include TAF

Data at: 1009 UTC 14 Dec 2017

KDLZ 140955Z AUTO 34011G19KT 10SM OVC012 M05/M07 A2977 RMK AO2
KDLZ 140935Z AUTO 33007G15KT 10SM OVC012 M03/M06 A2975 RMK AO2
KDLZ 140915Z AUTO 32012G20KT 10SM OVC012 M03/M06 A2973 RMK AO2
KDLZ 140855Z AUTO 31013G19KT 10SM OVC014 M03/M06 A2971 RMK AO2
KDLZ 140835Z AUTO 31013G18KT 7SM -SN OVC012 M03/M05 A2969 RMK AO2
KDLZ 140815Z AUTO 31017G23KT 7SM -SN OVC014 M03/M05 A2967 RMK AO2
KDLZ 140755Z AUTO 32017G24KT 10SM -SN BKN016 BKN024 OVC044 M03/M05 A2965 RMK AO2
KDLZ 140735Z AUTO 30020G26KT 10SM -SN SCT020 SCT025 OVC044 M02/M05 A2962 RMK AO2
KDLZ 140715Z AUTO 31019G27KT 7SM -SN BKN020 BKN026 OVC035 M01/M04 A2960 RMK AO2
KDLZ 140655Z AUTO 30027G37KT 5SM -SN OVC020 00/M03 A2956 RMK AO2
KDLZ 140635Z AUTO 29023G32KT 5SM -SN OVC022 00/M03 A2954 RMK AO2
KDLZ 140615Z AUTO 28024G31KT 10SM -SN OVC024 00/M03 A2951 RMK AO2
KDLZ 140555Z AUTO 29023G28KT 10SM -SN BKN024 BKN033 OVC042 00/M02 A2950 RMK AO2
KDLZ 140535Z AUTO 29027G39KT 10SM BKN020 OVC027 00/M02 A2948 RMK AO2
KDLZ 140515Z AUTO 29017G28KT 10SM OVC018 00/M01 A2946 RMK AO2
KDLZ 140455Z AUTO 28022G29KT 10SM OVC016 01/M01 A2945 RMK AO2
KDLZ 140435Z AUTO 29021G33KT 10SM BKN016 OVC022 01/00 A2944 RMK AO2
KDLZ 140415Z AUTO 28018G30KT 10SM UP BKN017 BKN024 OVC035 01/00 A2942 RMK AO2
KDLZ 140355Z AUTO 28015G27KT 5SM -RA SCT009 BKN013 OVC023 01/00 A2941 RMK AO2 P0001
KDLZ 140335Z AUTO 27015G21KT 2 1/2SM UP BKN010 OVC016 01/00 A2940 RMK AO2 P0001
KDLZ 140315Z AUTO 24006KT 2 1/2SM -SN BKN016 OVC021 00/M01 A2939 RMK AO2
KDLZ 140255Z AUTO 00000KT 3SM -SN OVC022 00/M02 A2939 RMK AO2
KDLZ 140235Z AUTO 00000KT 3SM -SN OVC024 00/M02 A2938 RMK AO2
KDLZ 140215Z AUTO 00000KT 10SM -SN OVC028 M01/M03 A2938 RMK AO2
KDLZ 140155Z AUTO 00000KT 7SM -SN OVC030 M01/M04 A2938 RMK AO2
KDLZ 140135Z AUTO 00000KT 5SM -SN SCT018 BKN032 OVC041 M01/M05 A2939 RMK AO2
KDLZ 140115Z AUTO 00000KT 10SM -SN BKN032 BKN038 OVC044 M01/M05 A2939 RMK AO2
KDLZ 140055Z AUTO 00000KT 10SM -SN SCT023 SCT029 OVC042 M02/M05 A2940 RMK AO2
KDLZ 140035Z AUTO 00000KT 7SM -SN SCT016 SCT023 OVC043 M02/M04 A2941 RMK AO2
KDLZ 140015Z AUTO 00000KT 4SM -SN SCT011 BKN016 OVC043 M02/M04 A2943 RMK AO2
KDLZ 132355Z AUTO 00000KT 3SM -SN BKN011 OVC019 M02/M05 A2943 RMK AO2
KDLZ 132335Z AUTO 19006G17KT 7SM -SN BKN019 BKN028 OVC046 M02/M06 A2945 RMK AO2
KDLZ 132315Z AUTO 18007G16KT 7SM -SN SCT014 SCT019 OVC046 M02/M07 A2947 RMK AO2
KDLZ 132255Z AUTO 18012G20KT 4SM -SN SCT011 BKN018 OVC030 M02/M08 A2947 RMK AO2
KDLZ 132235Z AUTO 17010G16KT 10SM SCT022 BKN039 OVC060 M02/M10 A2947 RMK AO2
KDLZ 132215Z AUTO 17009G18KT 10SM OVC060 M02/M10 A2947 RMK AO2
KDLZ 132155Z AUTO 17011G18KT 10SM OVC060 M02/M10 A2948 RMK AO2
KDLZ 132135Z AUTO 16012G16KT 10SM SCT060 SCT120 M02/M10 A2948 RMK AO2
KDLZ 132115Z AUTO 16011G17KT 10SM CLR M02/M11 A2950 RMK AO2
KDLZ 132055Z AUTO 17013G21KT 10SM CLR M02/M11 A2950 RMK AO2
KDLZ 132035Z AUTO 16015G21KT 10SM SCT110 M03/M11 A2948 RMK AO2
KDLZ 132015Z AUTO 15016G23KT 10SM OVC110 M03/M10 A2951 RMK AO2
KDLZ 131955Z AUTO 15013KT 10SM BKN100 M03/M10 A2953 RMK AO2
KDLZ 131935Z AUTO 15016KT 10SM SCT100 M03/M10 A2956 RMK AO2
KDLZ 131915Z AUTO 16013G20KT 10SM OVC100 M03/M10 A2958 RMK AO2
KDLZ 131855Z AUTO 15014KT 10SM BKN100 BKN120 M03/M10 A2960 RMK AO2
KDLZ 131835Z AUTO 17013G18KT 10SM SCT090 SCT120 M03/M09 A2963 RMK AO2
KDLZ 131815Z AUTO 15013KT 10SM SCT036 SCT041 BKN100 M04/M10 A2966 RMK AO2
KDLZ 131755Z AUTO 17008KT 10SM SCT036 BKN043 OVC050 M04/M10 A2969 RMK AO2
KDLZ 131735Z AUTO 17009G16KT 10SM SCT038 BKN044 OVC075 M04/M11 A2972 RMK AO2
KDLZ 131715Z AUTO 00000KT 10SM SCT029 BKN035 OVC075 M05/M11 A2974 RMK AO2
KDLZ 131655Z AUTO 17003KT 10SM SCT029 BKN034 OVC048 M05/M11 A2976 RMK AO2
KDLZ 131635Z AUTO 00000KT 10SM SCT043 BKN070 OVC085 M05/M10 A2977 RMK AO2
KDLZ 131615Z AUTO 19004KT 10SM SCT050 BKN080 BKN110 M05/M10 A2979 RMK AO2
KDLZ 131555Z AUTO 00000KT 10SM OVC055 M06/M10 A2981 RMK AO2
KDLZ 131535Z AUTO 00000KT 10SM SCT039 BKN060 OVC075 M06/M10 A2983 RMK AO2
KDLZ 131515Z AUTO 00000KT 10SM SCT039 OVC075 M06/M10 A2981 RMK AO2
KDLZ 131455Z AUTO 00000KT 10SM BKN039 OVC075 M07/M10 A2982 RMK AO2
KDLZ 131435Z AUTO 00000KT 10SM OVC037 M07/M10 A2985 RMK AO2
KDLZ 131415Z AUTO 00000KT 10SM BKN037 OVC055 M07/M11 A2985 RMK AO2
KDLZ 131355Z AUTO 00000KT 10SM SCT039 OVC065 M07/M11 A2985 RMK AO2
KDLZ 131335Z AUTO 00000KT 10SM OVC065 M08/M11 A2987 RMK AO2
KDLZ 131315Z AUTO 00000KT 10SM BKN065 OVC085 M08/M11 A2987 RMK AO2
KDLZ 131255Z AUTO 00000KT 10SM SCT065 OVC085 M08/M11 A2988 RMK AO2
KDLZ 131235Z AUTO 00000KT 10SM SCT065 BKN100 M09/M12 A2989 RMK AO2
KDLZ 131215Z AUTO 00000KT 10SM BKN100 M09/M12 A2989 RMK AO2
KDLZ 131156Z AUTO 00000KT 10SM BKN110 M09/M12 A2990 RMK AO2
KDLZ 131135Z AUTO 00000KT 10SM OVC100 M09/M12 A2990 RMK AO2
KDLZ 131115Z AUTO 00000KT 10SM OVC110 M10/M12 A2990 RMK AO2
KDLZ 131055Z AUTO 00000KT 10SM BKN110 M10/M13 A2990 RMK AO2
KDLZ 131035Z AUTO 00000KT 10SM CLR M10/M13 A2990 RMK AO2
KDLZ 131015Z AUTO 00000KT 10SM SCT040 SCT085 SCT110 M08/M12 A2990 RMK AO2
KDLZ 130956Z AUTO 00000KT 10SM BKN040 BKN085 M08/M12 A2990 RMK AO2
KDLZ 130935Z AUTO 00000KT 10SM OVC040 M07/M11 A2990 RMK AO2
KDLZ 130915Z AUTO 00000KT 10SM OVC040 M07/M11 A2990 RMK AO2
KDLZ 130855Z AUTO 00000KT 10SM SCT025 OVC040 M07/M11 A2990 RMK AO2
KDLZ 130835Z AUTO 00000KT 10SM OVC040 M07/M11 A2990 RMK AO2
KDLZ 130815Z AUTO 00000KT 10SM OVC040 M07/M10 A2990 RMK AO2
KDLZ 130755Z AUTO 00000KT 10SM -SN OVC038 M07/M10 A2991 RMK AO2
KDLZ 130735Z AUTO 00000KT 7SM -SN SCT027 OVC036 M07/M09 A2991 RMK AO2
KDLZ 130715Z AUTO 00000KT 5SM -SN SCT027 OVC036 M07/M09 A2991 RMK AO2
KDLZ 130655Z AUTO 00000KT 5SM -SN BKN027 BKN034 OVC040 M07/M08 A2990 RMK AO2
KDLZ 130635Z AUTO 00000KT 3SM -SN SCT012 BKN029 OVC040 M07/M08 A2990 RMK AO2
KDLZ 130615Z AUTO 00000KT 2 1/2SM -SN BKN013 OVC027 M07/M09 A2990 RMK AO2
KDLZ 130555Z AUTO 00000KT 2 1/2SM -SN SCT014 OVC029 M07/M09 A2991 RMK AO2
KDLZ 130535Z AUTO 00000KT 7SM -SN SCT009 SCT020 OVC031 M07/M09 A2991 RMK AO2
KDLZ 130515Z AUTO 00000KT 2SM -SN BKN009 BKN016 OVC023 M07/M09 A2991 RMK AO2
KDLZ 130455Z AUTO 00000KT 7SM -SN SCT020 BKN048 OVC060 M07/M10 A2992 RMK AO2
KDLZ 130435Z AUTO 00000KT 10SM OVC060 M07/M11 A2992 RMK AO2
KDLZ 130415Z AUTO 31009G16KT 10SM OVC060 M07/M12 A2992 RMK AO2
KDLZ 130355Z AUTO 31013G19KT 10SM OVC060 M07/M12 A2992 RMK AO2
KDLZ 130335Z AUTO 31007G17KT 10SM OVC060 M06/M12 A2993 RMK AO2
KDLZ 130315Z AUTO 32011G20KT 10SM OVC050 M06/M12 A2993 RMK AO2
KDLZ 130255Z AUTO 31009G18KT 10SM OVC050 M06/M12 A2992 RMK AO2
KDLZ 130235Z AUTO 32007G22KT 10SM OVC050 M06/M12 A2992 RMK AO2
KDLZ 130215Z AUTO 31013G20KT 10SM OVC050 M06/M12 A2992 RMK AO2
KDLZ 130155Z AUTO 32007G19KT 10SM OVC050 M06/M12 A2992 RMK AO2
KDLZ 130135Z AUTO 30008G18KT 10SM OVC050 M06/M11 A2993 RMK AO2
KDLZ 130115Z AUTO 30011G14KT 10SM OVC060 M06/M11 A2993 RMK AO2
KDLZ 130055Z AUTO 31007G16KT 10SM SCT022 SCT037 OVC060 M06/M11 A2992 RMK AO2
KDLZ 130035Z AUTO 31014G18KT 10SM SCT025 SCT037 OVC060 M06/M11 A2992 RMK AO2
KDLZ 130015Z AUTO 31011KT 10SM SCT046 OVC060 M06/M12 A2992 RMK AO2
KDLZ 122355Z AUTO 31011G19KT 10SM SCT050 OVC060 M06/M12 A2992 RMK AO2
KDLZ 122335Z AUTO 31015G21KT 10SM SCT011 BKN042 OVC060 M06/M11 A2991 RMK AO2
KDLZ 122315Z AUTO 30012G18KT 2 1/2SM -SN BKN013 BKN029 OVC050 M06/M10 A2991 RMK AO2
KDLZ 122255Z AUTO 30007G14KT 10SM SCT048 SCT050 BKN070 M06/M11 A2991 RMK AO2
KDLZ 122235Z AUTO 31013G21KT 10SM SCT050 OVC070 M06/M11 A2990 RMK AO2
KDLZ 122215Z AUTO 00000KT 10SM SCT042 BKN050 OVC070 M05/M11 A2989 RMK AO2